createdAt,value
2023-04-29T00:00:22.634Z,11.88
2023-04-29T00:05:24.523Z,12.70
2023-04-29T00:10:26.381Z,15.50
2023-04-29T00:15:28.164Z,12.85
2023-04-29T00:20:29.798Z,13.88
2023-04-29T00:25:31.390Z,10.57
2023-04-29T00:30:34.643Z,16.88
2023-04-29T00:35:36.399Z,12.30
2023-04-29T00:40:38.380Z,11.32
2023-04-29T00:45:40.397Z,12.20
2023-04-29T00:50:42.531Z,15.52
2023-04-29T00:55:46.441Z,13.50
2023-04-29T01:00:49.602Z,11.60
2023-04-29T01:06:19.137Z,14.27
2023-04-29T01:16:53.016Z,18.20
2023-04-29T01:21:55.128Z,22.23
2023-04-29T01:27:02.168Z,23.38
2023-04-29T01:32:34.688Z,23.35
2023-04-29T01:37:56.824Z,22.35
2023-04-29T01:43:03.430Z,20.92
2023-04-29T01:48:08.991Z,18.07
2023-04-29T01:53:10.878Z,20.48
2023-04-29T01:58:12.668Z,21.95
2023-04-29T02:03:31.857Z,21.70
2023-04-29T02:08:37.131Z,17.02
2023-04-29T02:13:39.103Z,17.58
2023-04-29T02:18:41.370Z,18.27
2023-04-29T02:23:43.275Z,19.40
2023-04-29T02:28:44.906Z,28.95
2023-04-29T02:33:46.587Z,28.17
2023-04-29T02:38:50.705Z,26.88
2023-04-29T02:43:52.318Z,27.60
2023-04-29T02:48:54.139Z,27.98
2023-04-29T02:53:56.372Z,28.27
2023-04-29T02:58:58.351Z,29.48
2023-04-29T03:04:00.265Z,33.85
2023-04-29T03:09:02.143Z,31.90
2023-04-29T03:14:04.122Z,33.22
2023-04-29T03:19:06.453Z,30.23
2023-04-29T03:24:08.862Z,27.88
2023-04-29T03:29:11.591Z,26.77
2023-04-29T03:34:14.676Z,30.38
2023-04-29T03:39:22.091Z,23.10
2023-04-29T03:44:23.948Z,20.80
2023-04-29T03:49:26.137Z,24.38
2023-04-29T03:54:28.156Z,25.70
2023-04-29T03:59:30.264Z,28.38
2023-04-29T04:04:32.178Z,27.10
2023-04-29T04:09:34.122Z,24.13
2023-04-29T04:14:36.103Z,23.13
2023-04-29T04:19:37.797Z,23.15
2023-04-29T04:24:39.471Z,20.27
2023-04-29T04:29:41.169Z,22.75
2023-04-29T04:34:49.939Z,23.02
2023-04-29T04:39:52.069Z,21.42
2023-04-29T04:44:54.178Z,18.63
2023-04-29T04:50:07.628Z,21.73
2023-04-29T04:55:09.863Z,21.73
2023-04-29T05:00:12.896Z,20.77
2023-04-29T05:05:14.923Z,21.45
2023-04-29T05:10:18.047Z,22.77
2023-04-29T05:15:27.610Z,24.52
2023-04-29T05:20:34.511Z,22.70
2023-04-29T05:25:36.932Z,27.27
2023-04-29T05:30:39.009Z,20.92
2023-04-29T05:35:41.868Z,20.20
2023-04-29T05:40:44.832Z,20.80
2023-04-29T05:46:06.038Z,26.55
2023-04-29T05:51:07.732Z,31.27
2023-04-29T05:56:09.824Z,25.45
2023-04-29T06:01:12.187Z,27.98
2023-04-29T06:06:14.006Z,27.38
2023-04-29T06:11:31.780Z,22.92
2023-04-29T06:16:36.500Z,22.70
2023-04-29T06:21:38.659Z,26.35
2023-04-29T06:26:41.364Z,18.20
2023-04-29T06:31:43.224Z,25.23
2023-04-29T06:36:45.082Z,21.25
2023-04-29T06:42:05.442Z,20.48
2023-04-29T06:47:41.989Z,17.77
2023-04-29T06:52:48.253Z,18.60
2023-04-29T06:57:49.994Z,17.27
2023-04-29T07:02:51.689Z,17.35
2023-04-29T07:07:53.607Z,20.10
2023-04-29T07:12:55.248Z,17.20
2023-04-29T07:17:57.127Z,13.00
2023-04-29T07:22:59.727Z,15.57
2023-04-29T07:28:01.503Z,17.65
2023-04-29T07:33:04.480Z,18.98
2023-04-29T07:38:06.605Z,14.23
2023-04-29T07:43:09.303Z,17.80
2023-04-29T07:48:11.141Z,11.57
2023-04-29T07:53:12.869Z,14.23
2023-04-29T07:58:14.685Z,12.43
2023-04-29T08:03:16.569Z,13.35
2023-04-29T08:08:18.974Z,12.45
2023-04-29T08:13:20.902Z,10.98
2023-04-29T08:18:22.751Z,13.93
2023-04-29T08:23:24.350Z,18.35
2023-04-29T08:28:25.972Z,17.95
2023-04-29T08:33:27.678Z,14.35
2023-04-29T08:38:32.346Z,15.50
2023-04-29T08:43:37.307Z,12.80
2023-04-29T08:48:44.990Z,13.15
2023-04-29T08:53:47.307Z,10.98
2023-04-29T08:58:58.249Z,11.68
2023-04-29T09:04:30.006Z,12.18
2023-04-29T09:09:33.373Z,11.25
2023-04-29T09:14:36.727Z,13.68
2023-04-29T09:19:38.372Z,14.27
2023-04-29T09:24:40.037Z,14.50
2023-04-29T09:30:00.998Z,13.20
2023-04-29T09:35:21.355Z,13.98
2023-04-29T09:40:43.419Z,12.23
2023-04-29T09:45:49.153Z,8.40
2023-04-29T09:51:04.441Z,13.57
2023-04-29T09:56:07.340Z,11.20
2023-04-29T10:01:09.972Z,14.38
2023-04-29T10:06:13.032Z,14.50
2023-04-29T10:11:16.826Z,14.05
2023-04-29T10:16:33.033Z,19.00
2023-04-29T10:21:34.988Z,17.17
2023-04-29T10:26:39.336Z,15.68
2023-04-29T10:31:43.641Z,15.02
2023-04-29T10:36:46.802Z,21.10
2023-04-29T10:41:50.885Z,19.48
2023-04-29T10:47:21.513Z,18.40
2023-04-29T10:52:23.226Z,18.98
2023-04-29T10:57:25.239Z,18.48
2023-04-29T11:02:27.066Z,20.63
2023-04-29T11:07:30.075Z,19.25
2023-04-29T11:12:31.729Z,15.80
2023-04-29T11:17:38.136Z,16.30
2023-04-29T11:22:40.200Z,16.35
2023-04-29T11:27:43.159Z,13.32
2023-04-29T11:32:44.824Z,12.05
2023-04-29T11:37:47.250Z,15.50
2023-04-29T11:42:50.094Z,5.22
2023-04-29T11:47:53.983Z,7.95
2023-04-29T11:52:58.360Z,14.52
2023-04-29T11:58:00.328Z,13.07
2023-04-29T12:03:02.144Z,14.32
2023-04-29T12:08:03.947Z,14.07
2023-04-29T12:13:05.616Z,9.55
2023-04-29T12:18:08.460Z,13.43
2023-04-29T12:23:24.298Z,13.35
2023-04-29T12:28:27.197Z,13.10
2023-04-29T12:33:30.045Z,12.13
2023-04-29T12:38:31.817Z,13.95
2023-04-29T12:43:33.836Z,12.73
2023-04-29T12:48:46.473Z,16.23
2023-04-29T12:53:48.199Z,13.45
2023-04-29T12:58:49.812Z,15.23
2023-04-29T13:03:51.970Z,15.02
2023-04-29T13:08:54.583Z,12.77
2023-04-29T13:13:56.156Z,12.25
2023-04-29T13:19:05.275Z,11.23
2023-04-29T13:24:10.523Z,10.93
2023-04-29T13:29:12.151Z,19.52
2023-04-29T13:34:13.909Z,18.00
2023-04-29T13:39:15.657Z,15.40
2023-04-29T13:44:29.384Z,14.32
2023-04-29T13:50:05.739Z,20.15
2023-04-29T13:55:33.031Z,25.65
2023-04-29T14:05:23.145Z,5.65
2023-04-29T14:10:25.043Z,5.68
2023-04-29T14:15:26.803Z,9.18
2023-04-29T14:20:28.400Z,7.70
2023-04-29T14:25:31.579Z,8.13
2023-04-29T14:30:34.732Z,21.40
2023-04-29T14:35:36.319Z,53.72
2023-04-29T14:40:39.174Z,67.00
2023-04-29T14:45:41.665Z,22.25
2023-04-29T14:50:43.330Z,14.75
2023-04-29T14:55:45.016Z,7.20
2023-04-29T15:00:46.931Z,10.35
2023-04-29T15:05:50.626Z,11.07
2023-04-29T15:10:52.606Z,10.65
2023-04-29T15:15:54.337Z,10.55
2023-04-29T15:20:55.976Z,9.32
2023-04-29T15:25:57.936Z,6.78
2023-04-29T15:31:01.869Z,10.02
2023-04-29T15:36:03.784Z,11.45
2023-04-29T15:41:05.649Z,14.27
2023-04-29T15:46:08.594Z,17.30
2023-04-29T15:51:10.594Z,26.33
2023-04-29T15:56:13.333Z,20.67
2023-04-29T16:01:15.085Z,19.52
2023-04-29T16:06:16.815Z,36.85
2023-04-29T16:11:18.714Z,15.63
2023-04-29T16:16:20.354Z,14.77
2023-04-29T16:21:22.120Z,19.45
2023-04-29T16:26:25.013Z,13.98
2023-04-29T16:31:27.767Z,13.68
2023-04-29T16:36:30.081Z,14.63
2023-04-29T16:41:32.301Z,14.40
2023-04-29T16:46:34.274Z,15.98
2023-04-29T16:51:36.157Z,13.57
2023-04-29T16:56:37.920Z,11.50
2023-04-29T17:01:39.965Z,12.82
2023-04-29T17:06:42.356Z,13.98
2023-04-29T17:11:44.144Z,15.82
2023-04-29T17:16:45.822Z,14.23
2023-04-29T17:21:47.449Z,15.40
2023-04-29T17:26:49.036Z,14.07
2023-04-29T17:31:59.306Z,15.27
2023-04-29T17:37:01.317Z,21.40
2023-04-29T17:42:03.643Z,18.67
2023-04-29T17:47:06.135Z,15.68
2023-04-29T17:52:07.759Z,17.15
2023-04-29T17:57:09.444Z,16.77
2023-04-29T18:02:11.108Z,21.52
2023-04-29T18:07:13.036Z,18.48
2023-04-29T18:12:14.722Z,23.80
2023-04-29T18:17:16.673Z,22.35
2023-04-29T18:22:18.329Z,20.83
2023-04-29T18:27:20.072Z,22.10
2023-04-29T18:32:21.732Z,20.50
2023-04-29T18:37:23.316Z,15.02
2023-04-29T18:42:24.924Z,19.58
2023-04-29T18:47:26.570Z,15.35
2023-04-29T19:26:05.985Z,18.08
2023-04-29T19:31:08.714Z,22.77
2023-04-29T19:36:11.535Z,21.92
2023-04-29T19:41:13.365Z,20.17
2023-04-29T19:46:15.078Z,19.15
2023-04-29T19:51:16.977Z,14.45
2023-04-29T19:56:20.028Z,13.63
2023-04-29T20:01:21.722Z,13.77
2023-04-29T20:06:23.458Z,10.90
2023-04-29T20:11:25.268Z,11.07
2023-04-29T20:16:30.929Z,12.23
2023-04-29T20:21:40.172Z,11.77
2023-04-29T20:26:44.254Z,10.30
2023-04-29T20:31:48.645Z,10.70
2023-04-29T20:36:53.492Z,9.93
2023-04-29T20:41:59.963Z,14.88
2023-04-29T20:47:04.865Z,14.20
2023-04-29T20:52:08.998Z,16.48
2023-04-29T20:57:12.534Z,13.98
2023-04-29T21:02:14.752Z,17.90
2023-04-29T21:07:16.675Z,10.27
2023-04-29T21:12:18.518Z,12.52
2023-04-29T21:17:20.114Z,7.25
2023-04-29T21:22:21.667Z,6.63
2023-04-29T21:27:23.319Z,6.35
2023-04-29T21:32:24.941Z,6.60
2023-04-29T21:37:26.655Z,7.50
2023-04-29T21:42:28.477Z,7.15
2023-04-29T21:47:30.825Z,6.22
2023-04-29T21:52:35.116Z,5.85
2023-04-29T21:57:44.556Z,5.88
2023-04-29T22:02:47.071Z,8.02
2023-04-29T22:07:48.742Z,5.80
2023-04-29T22:12:50.878Z,6.28
2023-04-29T22:17:52.655Z,7.45
2023-04-29T22:22:54.345Z,5.32
2023-04-29T22:27:56.794Z,9.98
2023-04-29T22:32:58.445Z,8.50
2023-04-29T22:38:00.122Z,6.80
2023-04-29T22:43:01.736Z,7.20
2023-04-29T22:48:03.457Z,8.50
2023-04-29T22:53:05.529Z,7.10
2023-04-29T22:58:07.204Z,7.18
2023-04-29T23:03:08.978Z,9.30
2023-04-29T23:08:10.709Z,6.03
2023-04-29T23:13:13.207Z,7.28
2023-04-29T23:18:15.011Z,8.75
2023-04-29T23:23:17.930Z,8.70
2023-04-29T23:28:19.673Z,8.63
2023-04-29T23:33:21.307Z,9.43
2023-04-29T23:38:23.089Z,7.63
2023-04-29T23:43:24.670Z,9.40
2023-04-29T23:48:26.258Z,9.80
2023-04-29T23:53:27.893Z,8.60
2023-04-29T23:58:29.515Z,8.48
